sensor_id;sensor_type;location;lat;lon;timestamp;P1;durP1;ratioP1;P2;durP2;ratioP2
920;SDS011;447;51.332;6.778;2023-08-07T00:02:08;2.40;;;1.87;;
920;SDS011;447;51.332;6.778;2023-08-07T00:04:34;2.00;;;1.80;;
920;SDS011;447;51.332;6.778;2023-08-07T00:07:02;2.93;;;2.30;;
920;SDS011;447;51.332;6.778;2023-08-07T00:09:34;4.93;;;1.87;;
920;SDS011;447;51.332;6.778;2023-08-07T00:12:05;3.93;;;1.97;;
920;SDS011;447;51.332;6.778;2023-08-07T00:14:33;3.43;;;1.87;;
920;SDS011;447;51.332;6.778;2023-08-07T00:17:04;3.33;;;2.13;;
920;SDS011;447;51.332;6.778;2023-08-07T00:19:31;3.80;;;2.10;;
920;SDS011;447;51.332;6.778;2023-08-07T00:21:59;2.93;;;2.00;;
920;SDS011;447;51.332;6.778;2023-08-07T00:24:31;2.60;;;1.80;;
920;SDS011;447;51.332;6.778;2023-08-07T00:26:57;4.60;;;2.00;;
920;SDS011;447;51.332;6.778;2023-08-07T00:29:23;4.40;;;1.83;;
920;SDS011;447;51.332;6.778;2023-08-07T00:31:54;3.03;;;2.30;;
920;SDS011;447;51.332;6.778;2023-08-07T00:34:22;1.80;;;1.70;;
920;SDS011;447;51.332;6.778;2023-08-07T00:36:49;4.40;;;2.07;;
920;SDS011;447;51.332;6.778;2023-08-07T00:39:15;6.73;;;2.30;;
920;SDS011;447;51.332;6.778;2023-08-07T00:41:43;2.13;;;1.93;;
920;SDS011;447;51.332;6.778;2023-08-07T00:44:09;2.80;;;1.97;;
920;SDS011;447;51.332;6.778;2023-08-07T00:46:35;5.20;;;2.10;;
920;SDS011;447;51.332;6.778;2023-08-07T00:49:02;3.43;;;2.33;;
920;SDS011;447;51.332;6.778;2023-08-07T00:51:31;4.03;;;2.40;;
920;SDS011;447;51.332;6.778;2023-08-07T00:54:03;3.60;;;2.30;;
920;SDS011;447;51.332;6.778;2023-08-07T00:56:30;3.77;;;2.17;;
920;SDS011;447;51.332;6.778;2023-08-07T00:58:59;3.03;;;2.17;;
920;SDS011;447;51.332;6.778;2023-08-07T01:01:29;2.90;;;1.90;;
920;SDS011;447;51.332;6.778;2023-08-07T01:03:59;4.13;;;2.40;;
920;SDS011;447;51.332;6.778;2023-08-07T01:06:26;4.00;;;2.37;;
920;SDS011;447;51.332;6.778;2023-08-07T01:08:52;4.37;;;2.00;;
920;SDS011;447;51.332;6.778;2023-08-07T01:11:26;5.13;;;2.20;;
920;SDS011;447;51.332;6.778;2023-08-07T01:17:14;4.10;;;2.23;;
920;SDS011;447;51.332;6.778;2023-08-07T01:19:41;3.30;;;2.27;;
920;SDS011;447;51.332;6.778;2023-08-07T01:22:08;3.57;;;1.90;;
920;SDS011;447;51.332;6.778;2023-08-07T01:24:38;2.90;;;2.20;;
920;SDS011;447;51.332;6.778;2023-08-07T01:32:29;3.87;;;2.53;;
920;SDS011;447;51.332;6.778;2023-08-07T01:35:19;6.23;;;2.30;;
920;SDS011;447;51.332;6.778;2023-08-07T01:37:51;3.60;;;2.13;;
920;SDS011;447;51.332;6.778;2023-08-07T01:40:20;4.17;;;2.20;;
920;SDS011;447;51.332;6.778;2023-08-07T01:42:52;4.87;;;2.20;;
920;SDS011;447;51.332;6.778;2023-08-07T01:45:24;5.73;;;2.60;;
920;SDS011;447;51.332;6.778;2023-08-07T01:47:54;4.80;;;2.33;;
920;SDS011;447;51.332;6.778;2023-08-07T01:50:22;3.40;;;2.50;;
920;SDS011;447;51.332;6.778;2023-08-07T01:52:48;4.53;;;2.40;;
920;SDS011;447;51.332;6.778;2023-08-07T01:55:19;6.30;;;2.57;;
920;SDS011;447;51.332;6.778;2023-08-07T01:57:50;5.97;;;2.17;;
920;SDS011;447;51.332;6.778;2023-08-07T02:00:16;6.60;;;2.80;;
920;SDS011;447;51.332;6.778;2023-08-07T02:02:46;3.43;;;2.13;;
920;SDS011;447;51.332;6.778;2023-08-07T02:05:17;3.10;;;2.27;;
920;SDS011;447;51.332;6.778;2023-08-07T02:07:45;3.00;;;2.30;;
920;SDS011;447;51.332;6.778;2023-08-07T02:10:13;3.93;;;2.50;;
920;SDS011;447;51.332;6.778;2023-08-07T02:12:41;6.50;;;3.00;;
920;SDS011;447;51.332;6.778;2023-08-07T02:15:09;3.37;;;2.50;;
920;SDS011;447;51.332;6.778;2023-08-07T02:17:38;3.40;;;2.57;;
920;SDS011;447;51.332;6.778;2023-08-07T02:20:06;4.27;;;2.13;;
920;SDS011;447;51.332;6.778;2023-08-07T02:22:38;3.93;;;2.30;;
920;SDS011;447;51.332;6.778;2023-08-07T02:25:04;4.33;;;2.60;;
920;SDS011;447;51.332;6.778;2023-08-07T02:27:35;3.77;;;2.67;;
920;SDS011;447;51.332;6.778;2023-08-07T02:30:05;4.67;;;2.70;;
920;SDS011;447;51.332;6.778;2023-08-07T02:32:32;5.17;;;2.80;;
920;SDS011;447;51.332;6.778;2023-08-07T02:34:58;4.43;;;2.90;;
920;SDS011;447;51.332;6.778;2023-08-07T02:37:27;5.47;;;2.70;;
920;SDS011;447;51.332;6.778;2023-08-07T02:39:57;4.47;;;2.53;;
920;SDS011;447;51.332;6.778;2023-08-07T02:42:28;4.40;;;2.50;;
920;SDS011;447;51.332;6.778;2023-08-07T02:44:54;4.20;;;2.70;;
920;SDS011;447;51.332;6.778;2023-08-07T02:47:19;5.27;;;2.67;;
920;SDS011;447;51.332;6.778;2023-08-07T02:49:48;5.67;;;2.23;;
920;SDS011;447;51.332;6.778;2023-08-07T02:52:17;3.80;;;2.60;;
920;SDS011;447;51.332;6.778;2023-08-07T02:54:46;5.20;;;3.10;;
920;SDS011;447;51.332;6.778;2023-08-07T02:57:14;4.70;;;2.30;;
920;SDS011;447;51.332;6.778;2023-08-07T02:59:40;5.57;;;2.70;;
920;SDS011;447;51.332;6.778;2023-08-07T03:02:06;6.23;;;2.90;;
920;SDS011;447;51.332;6.778;2023-08-07T03:04:32;4.00;;;2.30;;
920;SDS011;447;51.332;6.778;2023-08-07T03:07:00;3.37;;;2.70;;
920;SDS011;447;51.332;6.778;2023-08-07T03:09:28;3.03;;;2.43;;
920;SDS011;447;51.332;6.778;2023-08-07T03:11:54;4.67;;;2.43;;
920;SDS011;447;51.332;6.778;2023-08-07T03:14:21;3.30;;;3.00;;
920;SDS011;447;51.332;6.778;2023-08-07T03:16:49;4.33;;;2.40;;
920;SDS011;447;51.332;6.778;2023-08-07T03:19:18;3.87;;;2.70;;
920;SDS011;447;51.332;6.778;2023-08-07T03:21:49;7.57;;;3.03;;
920;SDS011;447;51.332;6.778;2023-08-07T03:24:17;4.20;;;3.40;;
920;SDS011;447;51.332;6.778;2023-08-07T03:26:45;3.70;;;2.77;;
920;SDS011;447;51.332;6.778;2023-08-07T03:29:13;4.80;;;2.97;;
920;SDS011;447;51.332;6.778;2023-08-07T03:31:39;3.43;;;2.50;;
920;SDS011;447;51.332;6.778;2023-08-07T03:34:10;4.97;;;3.33;;
920;SDS011;447;51.332;6.778;2023-08-07T03:36:38;4.20;;;2.57;;
920;SDS011;447;51.332;6.778;2023-08-07T03:39:04;6.57;;;2.70;;
920;SDS011;447;51.332;6.778;2023-08-07T03:41:30;4.30;;;3.00;;
920;SDS011;447;51.332;6.778;2023-08-07T03:43:57;3.33;;;2.93;;
920;SDS011;447;51.332;6.778;2023-08-07T03:46:23;6.43;;;2.87;;
920;SDS011;447;51.332;6.778;2023-08-07T03:48:50;6.10;;;2.77;;
920;SDS011;447;51.332;6.778;2023-08-07T03:51:22;5.43;;;2.63;;
920;SDS011;447;51.332;6.778;2023-08-07T03:53:51;3.83;;;3.17;;
920;SDS011;447;51.332;6.778;2023-08-07T03:56:20;4.83;;;2.53;;
920;SDS011;447;51.332;6.778;2023-08-07T03:58:48;6.23;;;3.20;;
920;SDS011;447;51.332;6.778;2023-08-07T04:01:18;6.10;;;3.70;;
920;SDS011;447;51.332;6.778;2023-08-07T04:03:46;5.73;;;3.30;;
920;SDS011;447;51.332;6.778;2023-08-07T04:06:18;9.40;;;3.60;;
920;SDS011;447;51.332;6.778;2023-08-07T04:08:47;3.20;;;2.90;;
920;SDS011;447;51.332;6.778;2023-08-07T04:11:16;4.67;;;3.10;;
920;SDS011;447;51.332;6.778;2023-08-07T04:13:44;4.03;;;3.47;;
920;SDS011;447;51.332;6.778;2023-08-07T04:16:10;9.60;;;3.40;;
920;SDS011;447;51.332;6.778;2023-08-07T04:18:41;6.57;;;3.63;;
920;SDS011;447;51.332;6.778;2023-08-07T04:21:07;5.63;;;3.40;;
920;SDS011;447;51.332;6.778;2023-08-07T04:23:36;4.47;;;3.53;;
920;SDS011;447;51.332;6.778;2023-08-07T04:26:02;5.80;;;3.97;;
920;SDS011;447;51.332;6.778;2023-08-07T04:28:30;4.57;;;3.20;;
920;SDS011;447;51.332;6.778;2023-08-07T04:30:59;8.40;;;3.60;;
920;SDS011;447;51.332;6.778;2023-08-07T04:33:25;5.80;;;3.40;;
920;SDS011;447;51.332;6.778;2023-08-07T04:35:51;3.90;;;3.57;;
920;SDS011;447;51.332;6.778;2023-08-07T04:38:17;5.63;;;3.03;;
920;SDS011;447;51.332;6.778;2023-08-07T04:40:46;6.33;;;3.30;;
920;SDS011;447;51.332;6.778;2023-08-07T04:43:14;4.27;;;3.20;;
920;SDS011;447;51.332;6.778;2023-08-07T04:45:43;9.57;;;4.10;;
920;SDS011;447;51.332;6.778;2023-08-07T04:48:12;3.87;;;3.00;;
920;SDS011;447;51.332;6.778;2023-08-07T04:50:43;3.73;;;3.10;;
920;SDS011;447;51.332;6.778;2023-08-07T04:53:09;3.10;;;2.90;;
920;SDS011;447;51.332;6.778;2023-08-07T04:55:38;5.20;;;3.50;;
920;SDS011;447;51.332;6.778;2023-08-07T04:58:04;4.50;;;3.20;;
920;SDS011;447;51.332;6.778;2023-08-07T05:00:33;2.83;;;2.60;;
920;SDS011;447;51.332;6.778;2023-08-07T05:02:59;5.70;;;3.30;;
920;SDS011;447;51.332;6.778;2023-08-07T05:05:27;4.50;;;3.50;;
920;SDS011;447;51.332;6.778;2023-08-07T05:07:57;5.10;;;2.90;;
920;SDS011;447;51.332;6.778;2023-08-07T05:10:26;5.77;;;2.73;;
920;SDS011;447;51.332;6.778;2023-08-07T05:12:57;9.80;;;3.47;;
920;SDS011;447;51.332;6.778;2023-08-07T05:15:23;4.23;;;3.63;;
920;SDS011;447;51.332;6.778;2023-08-07T05:17:52;3.40;;;3.03;;
920;SDS011;447;51.332;6.778;2023-08-07T05:20:18;6.07;;;3.77;;
920;SDS011;447;51.332;6.778;2023-08-07T05:22:44;4.53;;;3.27;;
920;SDS011;447;51.332;6.778;2023-08-07T05:25:13;6.70;;;3.40;;
920;SDS011;447;51.332;6.778;2023-08-07T05:27:47;6.10;;;3.20;;
920;SDS011;447;51.332;6.778;2023-08-07T05:30:15;5.40;;;3.30;;
920;SDS011;447;51.332;6.778;2023-08-07T05:32:41;3.40;;;3.10;;
920;SDS011;447;51.332;6.778;2023-08-07T05:35:08;3.40;;;3.10;;
920;SDS011;447;51.332;6.778;2023-08-07T05:37:36;4.63;;;3.47;;
920;SDS011;447;51.332;6.778;2023-08-07T05:40:05;4.20;;;3.40;;
920;SDS011;447;51.332;6.778;2023-08-07T05:42:34;3.93;;;3.33;;
920;SDS011;447;51.332;6.778;2023-08-07T05:45:07;5.40;;;3.63;;
920;SDS011;447;51.332;6.778;2023-08-07T05:47:35;7.50;;;4.53;;
920;SDS011;447;51.332;6.778;2023-08-07T05:50:01;5.00;;;3.77;;
920;SDS011;447;51.332;6.778;2023-08-07T05:52:29;4.93;;;3.40;;
920;SDS011;447;51.332;6.778;2023-08-07T05:54:55;4.07;;;3.63;;
920;SDS011;447;51.332;6.778;2023-08-07T05:57:21;6.60;;;4.20;;
920;SDS011;447;51.332;6.778;2023-08-07T05:59:49;4.10;;;3.70;;
920;SDS011;447;51.332;6.778;2023-08-07T06:02:20;6.33;;;3.73;;
920;SDS011;447;51.332;6.778;2023-08-07T06:04:46;7.23;;;4.03;;
920;SDS011;447;51.332;6.778;2023-08-07T06:07:12;5.80;;;3.60;;
920;SDS011;447;51.332;6.778;2023-08-07T06:09:38;6.50;;;3.63;;
920;SDS011;447;51.332;6.778;2023-08-07T06:12:07;6.60;;;3.57;;
920;SDS011;447;51.332;6.778;2023-08-07T06:14:36;7.10;;;3.53;;
920;SDS011;447;51.332;6.778;2023-08-07T06:17:02;7.67;;;4.00;;
920;SDS011;447;51.332;6.778;2023-08-07T06:19:31;6.40;;;3.23;;
920;SDS011;447;51.332;6.778;2023-08-07T06:21:57;3.53;;;3.20;;
920;SDS011;447;51.332;6.778;2023-08-07T06:24:23;7.03;;;4.10;;
920;SDS011;447;51.332;6.778;2023-08-07T06:26:52;3.83;;;2.97;;
920;SDS011;447;51.332;6.778;2023-08-07T06:29:21;5.30;;;3.83;;
920;SDS011;447;51.332;6.778;2023-08-07T06:31:47;4.57;;;3.50;;
920;SDS011;447;51.332;6.778;2023-08-07T06:34:15;4.50;;;3.70;;
920;SDS011;447;51.332;6.778;2023-08-07T06:36:43;4.70;;;3.70;;
920;SDS011;447;51.332;6.778;2023-08-07T06:39:12;3.90;;;3.43;;
920;SDS011;447;51.332;6.778;2023-08-07T06:41:38;4.20;;;3.50;;
920;SDS011;447;51.332;6.778;2023-08-07T06:44:04;4.20;;;3.37;;
920;SDS011;447;51.332;6.778;2023-08-07T06:46:30;6.73;;;3.53;;
920;SDS011;447;51.332;6.778;2023-08-07T06:48:58;6.60;;;3.90;;
920;SDS011;447;51.332;6.778;2023-08-07T06:51:25;5.10;;;3.33;;
920;SDS011;447;51.332;6.778;2023-08-07T06:53:55;4.00;;;3.50;;
920;SDS011;447;51.332;6.778;2023-08-07T06:56:23;7.27;;;3.87;;
920;SDS011;447;51.332;6.778;2023-08-07T06:58:55;5.47;;;3.53;;
920;SDS011;447;51.332;6.778;2023-08-07T07:01:21;5.57;;;3.30;;
920;SDS011;447;51.332;6.778;2023-08-07T07:03:49;3.77;;;3.47;;
920;SDS011;447;51.332;6.778;2023-08-07T07:06:18;5.70;;;3.80;;
920;SDS011;447;51.332;6.778;2023-08-07T07:08:50;3.83;;;3.30;;
920;SDS011;447;51.332;6.778;2023-08-07T07:11:20;4.70;;;3.73;;
920;SDS011;447;51.332;6.778;2023-08-07T07:13:48;7.03;;;4.00;;
920;SDS011;447;51.332;6.778;2023-08-07T07:16:17;3.77;;;3.10;;
920;SDS011;447;51.332;6.778;2023-08-07T07:18:46;9.00;;;3.97;;
920;SDS011;447;51.332;6.778;2023-08-07T07:21:15;4.30;;;3.90;;
920;SDS011;447;51.332;6.778;2023-08-07T07:23:41;3.53;;;3.23;;
920;SDS011;447;51.332;6.778;2023-08-07T07:26:07;4.87;;;3.57;;
920;SDS011;447;51.332;6.778;2023-08-07T07:28:35;4.40;;;3.30;;
920;SDS011;447;51.332;6.778;2023-08-07T07:31:01;6.33;;;3.00;;
920;SDS011;447;51.332;6.778;2023-08-07T07:33:32;5.93;;;3.47;;
920;SDS011;447;51.332;6.778;2023-08-07T07:35:57;5.60;;;3.30;;
920;SDS011;447;51.332;6.778;2023-08-07T07:38:24;5.23;;;3.63;;
920;SDS011;447;51.332;6.778;2023-08-07T07:40:52;6.77;;;3.87;;
920;SDS011;447;51.332;6.778;2023-08-07T07:43:24;3.90;;;3.50;;
920;SDS011;447;51.332;6.778;2023-08-07T07:45:50;8.77;;;3.83;;
920;SDS011;447;51.332;6.778;2023-08-07T07:48:18;4.40;;;3.13;;
920;SDS011;447;51.332;6.778;2023-08-07T07:50:47;5.50;;;3.20;;
920;SDS011;447;51.332;6.778;2023-08-07T07:53:13;3.67;;;3.03;;
920;SDS011;447;51.332;6.778;2023-08-07T07:55:46;5.30;;;3.37;;
920;SDS011;447;51.332;6.778;2023-08-07T07:58:15;4.53;;;3.27;;
920;SDS011;447;51.332;6.778;2023-08-07T08:00:41;4.13;;;3.00;;
920;SDS011;447;51.332;6.778;2023-08-07T08:03:07;5.90;;;3.53;;
920;SDS011;447;51.332;6.778;2023-08-07T08:05:37;6.00;;;3.80;;
920;SDS011;447;51.332;6.778;2023-08-07T08:08:07;4.63;;;4.17;;
920;SDS011;447;51.332;6.778;2023-08-07T08:10:36;4.83;;;3.00;;
920;SDS011;447;51.332;6.778;2023-08-07T08:13:05;3.70;;;3.23;;
920;SDS011;447;51.332;6.778;2023-08-07T08:15:33;4.23;;;3.63;;
920;SDS011;447;51.332;6.778;2023-08-07T08:17:59;4.47;;;3.20;;
920;SDS011;447;51.332;6.778;2023-08-07T08:20:26;4.40;;;3.33;;
920;SDS011;447;51.332;6.778;2023-08-07T08:22:52;3.70;;;3.40;;
920;SDS011;447;51.332;6.778;2023-08-07T08:25:20;5.63;;;3.80;;
920;SDS011;447;51.332;6.778;2023-08-07T08:27:49;6.60;;;2.90;;
920;SDS011;447;51.332;6.778;2023-08-07T08:30:18;3.23;;;2.87;;
920;SDS011;447;51.332;6.778;2023-08-07T08:32:44;4.03;;;3.13;;
920;SDS011;447;51.332;6.778;2023-08-07T08:35:13;3.50;;;3.20;;
920;SDS011;447;51.332;6.778;2023-08-07T08:37:39;3.83;;;3.10;;
920;SDS011;447;51.332;6.778;2023-08-07T08:40:08;3.60;;;3.17;;
920;SDS011;447;51.332;6.778;2023-08-07T08:42:40;3.60;;;3.30;;
920;SDS011;447;51.332;6.778;2023-08-07T08:45:11;8.63;;;3.33;;
920;SDS011;447;51.332;6.778;2023-08-07T08:47:39;3.10;;;2.80;;
920;SDS011;447;51.332;6.778;2023-08-07T08:50:08;6.80;;;3.20;;
920;SDS011;447;51.332;6.778;2023-08-07T08:52:35;5.40;;;2.90;;
920;SDS011;447;51.332;6.778;2023-08-07T08:55:03;3.40;;;3.10;;
920;SDS011;447;51.332;6.778;2023-08-07T08:57:31;4.60;;;3.10;;
920;SDS011;447;51.332;6.778;2023-08-07T08:59:59;4.00;;;2.90;;
920;SDS011;447;51.332;6.778;2023-08-07T09:02:28;5.77;;;3.13;;
920;SDS011;447;51.332;6.778;2023-08-07T09:04:56;3.73;;;2.77;;
920;SDS011;447;51.332;6.778;2023-08-07T09:07:22;3.77;;;3.00;;
920;SDS011;447;51.332;6.778;2023-08-07T09:09:51;4.30;;;3.20;;
920;SDS011;447;51.332;6.778;2023-08-07T09:12:23;3.50;;;2.60;;
920;SDS011;447;51.332;6.778;2023-08-07T09:14:56;3.17;;;2.97;;
920;SDS011;447;51.332;6.778;2023-08-07T09:17:28;3.53;;;3.23;;
920;SDS011;447;51.332;6.778;2023-08-07T09:19:55;4.33;;;2.87;;
920;SDS011;447;51.332;6.778;2023-08-07T09:22:21;5.27;;;3.30;;
920;SDS011;447;51.332;6.778;2023-08-07T09:24:47;4.53;;;3.10;;
920;SDS011;447;51.332;6.778;2023-08-07T09:27:15;4.13;;;3.37;;
920;SDS011;447;51.332;6.778;2023-08-07T09:29:44;4.03;;;3.30;;
920;SDS011;447;51.332;6.778;2023-08-07T09:32:12;4.03;;;2.93;;
920;SDS011;447;51.332;6.778;2023-08-07T09:34:41;5.40;;;3.90;;
920;SDS011;447;51.332;6.778;2023-08-07T09:37:10;4.90;;;3.27;;
920;SDS011;447;51.332;6.778;2023-08-07T09:39:38;5.07;;;2.93;;
920;SDS011;447;51.332;6.778;2023-08-07T09:42:15;5.03;;;3.03;;
920;SDS011;447;51.332;6.778;2023-08-07T09:44:42;4.47;;;2.53;;
920;SDS011;447;51.332;6.778;2023-08-07T09:47:11;4.13;;;3.20;;
920;SDS011;447;51.332;6.778;2023-08-07T09:49:39;5.57;;;3.00;;
920;SDS011;447;51.332;6.778;2023-08-07T09:52:06;7.07;;;3.60;;
920;SDS011;447;51.332;6.778;2023-08-07T09:54:33;6.60;;;3.90;;
920;SDS011;447;51.332;6.778;2023-08-07T09:57:05;4.40;;;3.57;;
920;SDS011;447;51.332;6.778;2023-08-07T09:59:32;6.00;;;3.30;;
920;SDS011;447;51.332;6.778;2023-08-07T10:02:02;3.80;;;3.23;;
920;SDS011;447;51.332;6.778;2023-08-07T10:04:29;6.50;;;3.33;;
920;SDS011;447;51.332;6.778;2023-08-07T10:06:56;4.63;;;3.10;;
920;SDS011;447;51.332;6.778;2023-08-07T10:09:23;4.90;;;3.60;;
920;SDS011;447;51.332;6.778;2023-08-07T10:11:49;5.57;;;3.10;;
920;SDS011;447;51.332;6.778;2023-08-07T10:14:18;4.30;;;3.20;;
920;SDS011;447;51.332;6.778;2023-08-07T10:16:47;4.53;;;3.23;;
920;SDS011;447;51.332;6.778;2023-08-07T10:19:16;3.80;;;2.70;;
920;SDS011;447;51.332;6.778;2023-08-07T10:21:42;3.60;;;3.30;;
920;SDS011;447;51.332;6.778;2023-08-07T10:24:09;5.57;;;3.40;;
920;SDS011;447;51.332;6.778;2023-08-07T10:26:43;4.23;;;3.10;;
920;SDS011;447;51.332;6.778;2023-08-07T10:29:14;6.33;;;3.20;;
920;SDS011;447;51.332;6.778;2023-08-07T10:31:44;4.50;;;3.13;;
920;SDS011;447;51.332;6.778;2023-08-07T10:34:11;6.00;;;3.80;;
920;SDS011;447;51.332;6.778;2023-08-07T10:36:39;5.27;;;3.70;;
920;SDS011;447;51.332;6.778;2023-08-07T10:39:09;5.23;;;3.70;;
920;SDS011;447;51.332;6.778;2023-08-07T10:41:40;4.20;;;3.53;;
920;SDS011;447;51.332;6.778;2023-08-07T10:44:19;8.00;;;3.73;;
920;SDS011;447;51.332;6.778;2023-08-07T10:46:53;7.40;;;3.60;;
920;SDS011;447;51.332;6.778;2023-08-07T10:49:41;6.90;;;4.00;;
920;SDS011;447;51.332;6.778;2023-08-07T10:52:09;4.67;;;3.50;;
920;SDS011;447;51.332;6.778;2023-08-07T10:54:45;5.63;;;3.67;;
920;SDS011;447;51.332;6.778;2023-08-07T10:57:18;5.83;;;3.97;;
920;SDS011;447;51.332;6.778;2023-08-07T11:02:29;6.20;;;3.70;;
920;SDS011;447;51.332;6.778;2023-08-07T11:04:55;7.40;;;4.00;;
920;SDS011;447;51.332;6.778;2023-08-07T11:07:28;6.77;;;4.27;;
920;SDS011;447;51.332;6.778;2023-08-07T11:09:57;8.70;;;3.57;;
920;SDS011;447;51.332;6.778;2023-08-07T11:12:24;7.23;;;4.30;;
920;SDS011;447;51.332;6.778;2023-08-07T11:14:51;7.10;;;4.00;;
920;SDS011;447;51.332;6.778;2023-08-07T11:17:26;4.40;;;3.40;;
920;SDS011;447;51.332;6.778;2023-08-07T11:19:53;5.47;;;4.23;;
920;SDS011;447;51.332;6.778;2023-08-07T11:22:20;3.57;;;3.27;;
920;SDS011;447;51.332;6.778;2023-08-07T11:24:46;6.57;;;3.67;;
920;SDS011;447;51.332;6.778;2023-08-07T11:27:16;5.30;;;3.40;;
920;SDS011;447;51.332;6.778;2023-08-07T11:29:46;6.27;;;3.50;;
920;SDS011;447;51.332;6.778;2023-08-07T11:32:13;4.03;;;3.60;;
920;SDS011;447;51.332;6.778;2023-08-07T11:34:48;5.70;;;3.40;;
920;SDS011;447;51.332;6.778;2023-08-07T11:37:16;8.60;;;3.47;;
920;SDS011;447;51.332;6.778;2023-08-07T11:39:43;6.30;;;3.70;;
920;SDS011;447;51.332;6.778;2023-08-07T11:42:09;7.33;;;3.63;;
920;SDS011;447;51.332;6.778;2023-08-07T11:44:35;5.13;;;3.47;;
920;SDS011;447;51.332;6.778;2023-08-07T11:47:04;6.07;;;3.37;;
920;SDS011;447;51.332;6.778;2023-08-07T11:49:32;6.17;;;3.83;;
920;SDS011;447;51.332;6.778;2023-08-07T11:51:58;4.63;;;3.53;;
920;SDS011;447;51.332;6.778;2023-08-07T11:54:30;6.90;;;3.90;;
920;SDS011;447;51.332;6.778;2023-08-07T11:56:56;10.53;;;3.40;;
920;SDS011;447;51.332;6.778;2023-08-07T11:59:25;6.37;;;3.60;;
920;SDS011;447;51.332;6.778;2023-08-07T12:01:51;5.43;;;3.60;;
920;SDS011;447;51.332;6.778;2023-08-07T12:04:23;5.40;;;3.97;;
920;SDS011;447;51.332;6.778;2023-08-07T12:06:56;5.97;;;4.03;;
920;SDS011;447;51.332;6.778;2023-08-07T12:09:25;5.20;;;3.50;;
920;SDS011;447;51.332;6.778;2023-08-07T12:11:55;6.10;;;4.03;;
920;SDS011;447;51.332;6.778;2023-08-07T12:14:22;4.10;;;3.13;;
920;SDS011;447;51.332;6.778;2023-08-07T12:16:48;3.80;;;3.33;;
920;SDS011;447;51.332;6.778;2023-08-07T12:19:15;4.37;;;3.20;;
920;SDS011;447;51.332;6.778;2023-08-07T12:21:41;7.00;;;3.60;;
920;SDS011;447;51.332;6.778;2023-08-07T12:24:08;4.90;;;3.80;;
920;SDS011;447;51.332;6.778;2023-08-07T12:26:36;4.40;;;3.70;;
920;SDS011;447;51.332;6.778;2023-08-07T12:29:02;4.97;;;3.80;;
920;SDS011;447;51.332;6.778;2023-08-07T12:31:29;4.73;;;3.67;;
920;SDS011;447;51.332;6.778;2023-08-07T12:33:55;5.73;;;4.00;;
920;SDS011;447;51.332;6.778;2023-08-07T12:36:21;7.17;;;3.93;;
920;SDS011;447;51.332;6.778;2023-08-07T12:38:47;4.27;;;3.87;;
920;SDS011;447;51.332;6.778;2023-08-07T12:44:12;6.23;;;3.37;;
920;SDS011;447;51.332;6.778;2023-08-07T12:46:40;3.07;;;2.87;;
920;SDS011;447;51.332;6.778;2023-08-07T12:49:08;2.90;;;2.70;;
920;SDS011;447;51.332;6.778;2023-08-07T12:51:37;5.90;;;3.43;;
920;SDS011;447;51.332;6.778;2023-08-07T12:54:05;8.93;;;4.23;;
920;SDS011;447;51.332;6.778;2023-08-07T12:56:31;4.93;;;3.60;;
920;SDS011;447;51.332;6.778;2023-08-07T12:59:06;7.10;;;3.60;;
920;SDS011;447;51.332;6.778;2023-08-07T13:04:51;4.03;;;3.27;;
920;SDS011;447;51.332;6.778;2023-08-07T13:07:19;4.60;;;3.57;;
920;SDS011;447;51.332;6.778;2023-08-07T13:09:48;3.77;;;3.47;;
920;SDS011;447;51.332;6.778;2023-08-07T13:12:17;5.27;;;3.17;;
920;SDS011;447;51.332;6.778;2023-08-07T13:14:47;3.47;;;3.17;;
920;SDS011;447;51.332;6.778;2023-08-07T13:17:15;4.33;;;3.27;;
920;SDS011;447;51.332;6.778;2023-08-07T13:19:43;6.63;;;3.67;;
920;SDS011;447;51.332;6.778;2023-08-07T13:22:11;6.57;;;3.17;;
920;SDS011;447;51.332;6.778;2023-08-07T13:24:42;3.60;;;3.37;;
920;SDS011;447;51.332;6.778;2023-08-07T13:27:09;4.80;;;3.70;;
920;SDS011;447;51.332;6.778;2023-08-07T13:29:37;3.67;;;3.37;;
920;SDS011;447;51.332;6.778;2023-08-07T13:32:04;4.13;;;3.33;;
920;SDS011;447;51.332;6.778;2023-08-07T13:34:37;5.07;;;3.40;;
920;SDS011;447;51.332;6.778;2023-08-07T13:37:06;3.17;;;2.87;;
920;SDS011;447;51.332;6.778;2023-08-07T13:39:35;4.37;;;3.20;;
920;SDS011;447;51.332;6.778;2023-08-07T13:42:01;4.27;;;2.90;;
920;SDS011;447;51.332;6.778;2023-08-07T13:44:27;4.53;;;3.03;;
920;SDS011;447;51.332;6.778;2023-08-07T13:46:55;5.43;;;3.17;;
920;SDS011;447;51.332;6.778;2023-08-07T13:49:22;4.33;;;3.43;;
920;SDS011;447;51.332;6.778;2023-08-07T13:51:49;3.03;;;2.83;;
920;SDS011;447;51.332;6.778;2023-08-07T13:54:15;5.00;;;3.50;;
920;SDS011;447;51.332;6.778;2023-08-07T13:56:41;3.13;;;2.83;;
920;SDS011;447;51.332;6.778;2023-08-07T13:59:11;5.57;;;3.60;;
920;SDS011;447;51.332;6.778;2023-08-07T14:01:39;3.93;;;2.90;;
920;SDS011;447;51.332;6.778;2023-08-07T14:04:06;3.77;;;3.57;;
920;SDS011;447;51.332;6.778;2023-08-07T14:06:34;4.60;;;3.50;;
920;SDS011;447;51.332;6.778;2023-08-07T14:09:01;6.50;;;3.17;;
920;SDS011;447;51.332;6.778;2023-08-07T14:11:28;3.40;;;3.03;;
920;SDS011;447;51.332;6.778;2023-08-07T14:13:57;4.87;;;3.53;;
920;SDS011;447;51.332;6.778;2023-08-07T14:16:25;4.17;;;3.77;;
920;SDS011;447;51.332;6.778;2023-08-07T14:18:54;4.27;;;3.43;;
920;SDS011;447;51.332;6.778;2023-08-07T14:21:21;6.50;;;3.20;;
920;SDS011;447;51.332;6.778;2023-08-07T14:23:49;7.03;;;3.00;;
920;SDS011;447;51.332;6.778;2023-08-07T14:26:17;8.07;;;3.40;;
920;SDS011;447;51.332;6.778;2023-08-07T14:28:46;3.97;;;2.80;;
920;SDS011;447;51.332;6.778;2023-08-07T14:31:14;4.50;;;2.97;;
920;SDS011;447;51.332;6.778;2023-08-07T14:33:42;4.27;;;2.90;;
920;SDS011;447;51.332;6.778;2023-08-07T14:36:11;6.30;;;3.10;;
920;SDS011;447;51.332;6.778;2023-08-07T14:38:39;4.40;;;3.60;;
920;SDS011;447;51.332;6.778;2023-08-07T14:41:05;3.73;;;3.30;;
920;SDS011;447;51.332;6.778;2023-08-07T14:43:33;6.43;;;3.30;;
920;SDS011;447;51.332;6.778;2023-08-07T14:46:01;3.87;;;3.47;;
920;SDS011;447;51.332;6.778;2023-08-07T14:48:27;2.80;;;2.60;;
920;SDS011;447;51.332;6.778;2023-08-07T14:50:53;3.30;;;3.07;;
920;SDS011;447;51.332;6.778;2023-08-07T14:53:21;3.80;;;3.07;;
920;SDS011;447;51.332;6.778;2023-08-07T14:55:47;3.37;;;3.17;;
920;SDS011;447;51.332;6.778;2023-08-07T14:58:16;3.30;;;3.10;;
920;SDS011;447;51.332;6.778;2023-08-07T15:00:42;3.60;;;3.30;;
920;SDS011;447;51.332;6.778;2023-08-07T15:03:08;3.93;;;3.63;;
920;SDS011;447;51.332;6.778;2023-08-07T15:05:34;3.40;;;3.10;;
920;SDS011;447;51.332;6.778;2023-08-07T15:08:00;4.10;;;3.80;;
920;SDS011;447;51.332;6.778;2023-08-07T15:10:29;3.83;;;3.00;;
920;SDS011;447;51.332;6.778;2023-08-07T15:13:01;4.27;;;3.63;;
920;SDS011;447;51.332;6.778;2023-08-07T15:15:27;3.83;;;3.40;;
920;SDS011;447;51.332;6.778;2023-08-07T15:17:59;3.67;;;3.37;;
920;SDS011;447;51.332;6.778;2023-08-07T15:20:33;4.07;;;3.37;;
920;SDS011;447;51.332;6.778;2023-08-07T15:22:59;3.20;;;2.90;;
920;SDS011;447;51.332;6.778;2023-08-07T15:25:26;6.03;;;3.67;;
920;SDS011;447;51.332;6.778;2023-08-07T15:27:57;3.90;;;3.57;;
920;SDS011;447;51.332;6.778;2023-08-07T15:30:26;3.30;;;3.10;;
920;SDS011;447;51.332;6.778;2023-08-07T15:32:53;4.93;;;3.73;;
920;SDS011;447;51.332;6.778;2023-08-07T15:35:21;5.00;;;3.73;;
920;SDS011;447;51.332;6.778;2023-08-07T15:37:51;3.47;;;3.17;;
920;SDS011;447;51.332;6.778;2023-08-07T15:40:17;5.43;;;3.63;;
920;SDS011;447;51.332;6.778;2023-08-07T15:42:43;6.10;;;3.80;;
920;SDS011;447;51.332;6.778;2023-08-07T15:45:11;4.30;;;3.90;;
920;SDS011;447;51.332;6.778;2023-08-07T15:47:38;3.83;;;3.40;;
920;SDS011;447;51.332;6.778;2023-08-07T15:50:04;4.03;;;3.60;;
920;SDS011;447;51.332;6.778;2023-08-07T15:52:30;4.20;;;3.53;;
920;SDS011;447;51.332;6.778;2023-08-07T15:54:56;3.90;;;3.40;;
920;SDS011;447;51.332;6.778;2023-08-07T15:57:25;4.27;;;3.87;;
920;SDS011;447;51.332;6.778;2023-08-07T15:59:53;3.80;;;3.50;;
920;SDS011;447;51.332;6.778;2023-08-07T16:02:21;4.63;;;3.30;;
920;SDS011;447;51.332;6.778;2023-08-07T16:04:50;4.57;;;4.17;;
920;SDS011;447;51.332;6.778;2023-08-07T16:07:16;3.97;;;3.60;;
920;SDS011;447;51.332;6.778;2023-08-07T16:09:42;4.30;;;4.00;;